createdAt,value
2018-08-24T00:01:42.663Z,5.77
2018-08-24T00:04:11.243Z,5.57
2018-08-24T00:06:41.098Z,5.70
2018-08-24T00:09:13.384Z,5.60
2018-08-24T00:11:42.148Z,5.47
2018-08-24T00:14:11.951Z,6.17
2018-08-24T00:16:42.613Z,5.80
2018-08-24T00:19:14.144Z,6.17
2018-08-24T00:21:42.939Z,6.00
2018-08-24T00:24:12.136Z,5.63
2018-08-24T00:26:41.431Z,5.90
2018-08-24T00:29:10.148Z,5.57
2018-08-24T00:31:39.426Z,5.50
2018-08-24T00:34:08.208Z,6.00
2018-08-24T00:36:36.761Z,5.80
2018-08-24T00:39:07.664Z,6.17
2018-08-24T00:41:36.757Z,5.57
2018-08-24T00:44:05.860Z,6.53
2018-08-24T00:46:34.919Z,5.70
2018-08-24T00:49:03.619Z,5.77
2018-08-24T00:51:33.419Z,5.97
2018-08-24T00:54:01.876Z,5.40
2018-08-24T00:56:30.445Z,5.63
2018-08-24T00:58:59.641Z,5.67
2018-08-24T01:01:28.331Z,5.50
2018-08-24T01:03:56.931Z,5.30
2018-08-24T01:06:25.635Z,5.80
2018-08-24T01:08:54.943Z,5.80
2018-08-24T01:11:28.886Z,6.13
2018-08-24T01:13:57.618Z,6.23
2018-08-24T01:16:31.439Z,6.17
2018-08-24T01:19:00.785Z,6.47
2018-08-24T01:21:29.476Z,6.27
2018-08-24T01:23:58.137Z,6.87
2018-08-24T01:26:27.226Z,6.23
2018-08-24T01:28:56.460Z,6.43
2018-08-24T01:31:25.013Z,6.40
2018-08-24T01:33:53.607Z,6.87
2018-08-24T01:36:22.249Z,6.70
2018-08-24T01:38:50.732Z,6.50
2018-08-24T01:41:19.572Z,6.57
2018-08-24T01:43:48.166Z,6.40
2018-08-24T01:46:16.992Z,7.30
2018-08-24T01:48:45.512Z,6.70
2018-08-24T01:51:14.005Z,6.57
2018-08-24T01:53:42.986Z,6.50
2018-08-24T01:56:12.269Z,6.50
2018-08-24T01:58:41.531Z,7.03
2018-08-24T02:01:10.235Z,6.30
2018-08-24T02:03:38.872Z,7.03
2018-08-24T02:06:08.357Z,7.13
2018-08-24T02:08:37.877Z,6.37
2018-08-24T02:11:11.831Z,6.17
2018-08-24T02:13:47.619Z,6.53
2018-08-24T02:16:16.416Z,6.30
2018-08-24T02:18:50.516Z,6.03
2018-08-24T02:21:24.780Z,5.83
2018-08-24T02:23:53.332Z,6.03
2018-08-24T02:26:22.147Z,5.70
2018-08-24T02:28:50.923Z,6.10
2018-08-24T02:31:19.512Z,5.80
2018-08-24T02:33:48.670Z,6.40
2018-08-24T02:36:18.335Z,6.23
2018-08-24T02:38:46.825Z,6.03
2018-08-24T02:41:15.284Z,5.50
2018-08-24T02:43:43.903Z,7.03
2018-08-24T02:46:12.406Z,6.47
2018-08-24T02:48:40.958Z,6.07
2018-08-24T02:51:09.584Z,6.00
2018-08-24T02:53:38.084Z,6.43
2018-08-24T02:56:07.155Z,6.33
2018-08-24T02:58:35.615Z,6.87
2018-08-24T03:01:04.532Z,5.63
2018-08-24T03:03:33.891Z,6.40
2018-08-24T03:06:03.201Z,6.90
2018-08-24T03:08:32.162Z,6.53
2018-08-24T03:11:00.704Z,6.50
2018-08-24T03:13:29.147Z,6.90
2018-08-24T03:15:57.943Z,6.40
2018-08-24T03:18:26.489Z,6.10
2018-08-24T03:20:55.246Z,6.03
2018-08-24T03:23:23.692Z,6.47
2018-08-24T03:25:52.291Z,6.20
2018-08-24T03:28:20.827Z,6.60
2018-08-24T03:30:49.365Z,6.23
2018-08-24T03:33:17.949Z,6.50
2018-08-24T03:35:46.821Z,6.63
2018-08-24T03:38:15.364Z,6.20
2018-08-24T03:40:44.601Z,6.20
2018-08-24T03:43:13.131Z,6.20
2018-08-24T03:45:41.858Z,6.00
2018-08-24T03:48:10.352Z,5.43
2018-08-24T03:50:39.016Z,5.90
2018-08-24T03:53:07.675Z,6.30
2018-08-24T03:55:37.332Z,6.30
2018-08-24T03:58:07.062Z,5.83
2018-08-24T04:00:36.184Z,5.83
2018-08-24T04:03:05.024Z,5.77
2018-08-24T04:05:33.612Z,6.40
2018-08-24T04:08:02.188Z,5.80
2018-08-24T04:10:30.830Z,5.97
2018-08-24T04:12:59.395Z,6.13
2018-08-24T04:15:27.987Z,5.30
2018-08-24T04:17:56.541Z,5.60
2018-08-24T04:20:25.180Z,6.30
2018-08-24T04:22:54.240Z,5.47
2018-08-24T04:25:22.824Z,5.43
2018-08-24T04:27:51.376Z,6.00
2018-08-24T04:30:19.945Z,5.23
2018-08-24T04:32:48.530Z,5.60
2018-08-24T04:35:17.684Z,5.80
2018-08-24T04:37:46.639Z,6.00
2018-08-24T04:40:15.370Z,5.70
2018-08-24T04:42:43.815Z,6.07
2018-08-24T04:45:12.444Z,6.20
2018-08-24T04:47:41.686Z,5.90
2018-08-24T04:50:10.307Z,6.07
2018-08-24T04:52:38.887Z,6.00
2018-08-24T04:55:07.495Z,6.03
2018-08-24T04:57:36.171Z,5.93
2018-08-24T05:00:04.800Z,6.23
2018-08-24T05:02:33.389Z,6.33
2018-08-24T05:05:01.928Z,6.40
2018-08-24T05:07:30.435Z,5.77
2018-08-24T05:09:59.091Z,6.60
2018-08-24T05:12:27.836Z,6.43
2018-08-24T05:14:57.268Z,6.10
2018-08-24T05:17:27.482Z,6.23
2018-08-24T05:19:56.043Z,6.40
2018-08-24T05:22:24.680Z,5.77
2018-08-24T05:24:53.533Z,5.60
2018-08-24T05:27:21.966Z,6.20
2018-08-24T05:29:50.590Z,5.97
2018-08-24T05:32:19.802Z,5.67
2018-08-24T05:34:48.491Z,5.80
2018-08-24T05:37:17.056Z,5.97
2018-08-24T05:39:45.564Z,5.90
2018-08-24T05:42:14.116Z,5.53
2018-08-24T05:44:42.644Z,5.90
2018-08-24T05:47:11.292Z,5.77
2018-08-24T05:49:39.767Z,5.47
2018-08-24T05:52:08.387Z,6.33
2018-08-24T05:54:37.133Z,5.33
2018-08-24T05:57:05.640Z,5.17
2018-08-24T05:59:34.361Z,6.00
2018-08-24T06:02:03.564Z,5.80
2018-08-24T06:04:32.201Z,5.63
2018-08-24T06:07:01.010Z,6.00
2018-08-24T06:09:29.687Z,5.63
2018-08-24T06:11:58.920Z,5.87
2018-08-24T06:14:27.477Z,5.90
2018-08-24T06:17:01.109Z,6.13
2018-08-24T06:19:29.688Z,5.23
2018-08-24T06:21:58.405Z,5.67
2018-08-24T06:24:27.002Z,5.60
2018-08-24T06:26:55.723Z,5.73
2018-08-24T06:29:24.251Z,5.67
2018-08-24T06:31:53.093Z,5.77
2018-08-24T06:34:21.705Z,5.93
2018-08-24T06:36:50.537Z,6.13
2018-08-24T06:39:19.079Z,5.80
2018-08-24T06:41:47.663Z,5.80
2018-08-24T06:44:16.369Z,5.93
2018-08-24T06:46:45.007Z,5.47
2018-08-24T06:49:13.863Z,5.63
2018-08-24T06:51:43.347Z,5.70
2018-08-24T06:54:12.047Z,5.27
2018-08-24T06:56:40.808Z,5.80
2018-08-24T06:59:09.859Z,5.03
2018-08-24T07:01:38.572Z,6.13
2018-08-24T07:04:07.112Z,5.70
2018-08-24T07:06:35.592Z,5.50
2018-08-24T07:09:05.365Z,5.80
2018-08-24T07:11:33.972Z,5.70
2018-08-24T07:14:03.444Z,6.00
2018-08-24T07:16:32.080Z,5.73
2018-08-24T07:19:01.946Z,6.07
2018-08-24T07:21:30.680Z,5.70
2018-08-24T07:23:59.355Z,5.73
2018-08-24T07:26:28.145Z,5.60
2018-08-24T07:28:56.776Z,5.87
2018-08-24T07:31:26.069Z,6.57
2018-08-24T07:33:54.879Z,5.47
2018-08-24T07:36:23.355Z,6.43
2018-08-24T07:38:52.100Z,5.60
2018-08-24T07:41:20.613Z,5.50
2018-08-24T07:43:50.004Z,5.80
2018-08-24T07:46:19.302Z,5.07
2018-08-24T07:48:47.816Z,5.60
2018-08-24T07:51:16.392Z,5.37
2018-08-24T07:53:45.721Z,5.43
2018-08-24T07:56:15.093Z,5.40
2018-08-24T07:58:44.124Z,5.30
2018-08-24T08:01:12.697Z,5.23
2018-08-24T08:03:41.521Z,4.43
2018-08-24T08:06:10.135Z,4.50
2018-08-24T08:08:38.715Z,4.83
2018-08-24T08:11:07.226Z,4.23
2018-08-24T08:13:35.943Z,3.97
2018-08-24T08:16:04.476Z,3.97
2018-08-24T08:18:33.132Z,4.27
2018-08-24T08:21:01.695Z,3.53
2018-08-24T08:23:30.873Z,3.30
2018-08-24T08:25:59.529Z,2.93
2018-08-24T08:28:28.249Z,3.00
2018-08-24T08:30:57.426Z,3.10
2018-08-24T08:33:26.151Z,3.00
2018-08-24T08:35:54.681Z,3.30
2018-08-24T08:38:23.236Z,2.70
2018-08-24T08:40:52.360Z,2.93
2018-08-24T08:43:21.677Z,3.00
2018-08-24T08:45:50.310Z,3.20
2018-08-24T08:48:19.181Z,2.70
2018-08-24T08:50:47.704Z,2.57
2018-08-24T08:53:16.258Z,2.63
2018-08-24T08:55:44.968Z,3.30
2018-08-24T08:58:14.152Z,2.77
2018-08-24T09:00:42.963Z,2.70
2018-08-24T09:03:11.545Z,2.73
2018-08-24T09:05:40.089Z,2.63
2018-08-24T09:08:09.328Z,2.60
2018-08-24T09:10:38.095Z,2.70
2018-08-24T09:13:06.903Z,2.50
2018-08-24T09:15:35.576Z,2.50
2018-08-24T09:18:09.497Z,2.80
2018-08-24T09:20:43.412Z,2.57
2018-08-24T09:23:17.936Z,2.60
2018-08-24T09:25:52.195Z,2.60
2018-08-24T09:28:25.997Z,2.27
2018-08-24T09:30:59.596Z,2.70
2018-08-24T09:33:28.851Z,2.30
2018-08-24T09:35:57.447Z,2.70
2018-08-24T09:38:25.960Z,2.50
2018-08-24T09:40:58.320Z,2.60
2018-08-24T09:43:32.478Z,2.40
2018-08-24T09:46:01.171Z,2.20
2018-08-24T09:48:31.673Z,2.40
2018-08-24T09:51:05.704Z,2.80
2018-08-24T09:53:39.630Z,2.30
2018-08-24T09:56:08.108Z,1.93
2018-08-24T09:58:37.354Z,2.10
2018-08-24T10:01:11.402Z,2.10
2018-08-24T10:03:45.216Z,2.30
2018-08-24T10:06:19.033Z,2.13
2018-08-24T10:08:50.086Z,2.63
2018-08-24T10:11:18.732Z,2.10
2018-08-24T10:13:47.974Z,2.80
2018-08-24T10:16:17.691Z,2.73
2018-08-24T10:18:48.259Z,2.50
2018-08-24T10:21:17.848Z,2.57
2018-08-24T10:23:46.716Z,2.47
2018-08-24T10:26:16.445Z,2.60
2018-08-24T10:28:45.655Z,2.60
2018-08-24T10:31:14.312Z,2.83
2018-08-24T10:33:44.184Z,2.70
2018-08-24T10:36:12.962Z,2.50
2018-08-24T10:38:41.772Z,2.70
2018-08-24T10:41:10.795Z,2.87
2018-08-24T10:43:39.342Z,1.63
2018-08-24T10:46:08.060Z,0.97
2018-08-24T10:48:37.457Z,0.90
2018-08-24T10:51:06.416Z,1.10
2018-08-24T10:53:35.345Z,1.33
2018-08-24T10:56:04.140Z,1.30
2018-08-24T10:58:33.393Z,1.30
2018-08-24T11:01:02.087Z,1.43
2018-08-24T11:03:30.971Z,1.93
2018-08-24T11:06:00.457Z,2.43
2018-08-24T11:08:29.209Z,2.43
2018-08-24T11:10:58.140Z,2.40
2018-08-24T11:13:26.704Z,3.00
2018-08-24T11:15:55.400Z,3.83
2018-08-24T11:18:24.114Z,3.73
2018-08-24T11:20:52.817Z,3.50
2018-08-24T11:23:21.391Z,3.60
2018-08-24T11:25:50.861Z,3.23
2018-08-24T11:28:20.176Z,3.20
2018-08-24T11:30:48.945Z,12.47
2018-08-24T11:33:17.635Z,2.93
2018-08-24T11:35:46.562Z,2.53
2018-08-24T11:38:15.093Z,2.60
2018-08-24T11:40:44.468Z,2.30
2018-08-24T11:43:13.137Z,2.40
2018-08-24T11:45:41.728Z,2.17
2018-08-24T11:48:10.381Z,1.90
2018-08-24T11:50:38.986Z,2.00
2018-08-24T11:53:07.920Z,2.00
2018-08-24T11:55:36.602Z,2.50
2018-08-24T11:58:05.490Z,2.60
2018-08-24T12:00:35.099Z,2.40
2018-08-24T12:03:04.344Z,2.50
2018-08-24T12:05:32.918Z,2.70
2018-08-24T12:08:01.631Z,3.00
2018-08-24T12:10:30.174Z,3.50
2018-08-24T12:12:59.289Z,4.90
2018-08-24T12:15:28.635Z,5.93
2018-08-24T12:17:57.491Z,6.23
2018-08-24T12:20:27.181Z,6.30
2018-08-24T12:22:56.344Z,6.87
2018-08-24T12:25:25.404Z,6.27
2018-08-24T12:27:54.180Z,6.87
2018-08-24T12:30:23.472Z,6.87
2018-08-24T12:32:51.997Z,6.67
2018-08-24T12:35:20.677Z,7.10
2018-08-24T12:37:49.359Z,6.50
2018-08-24T12:40:17.947Z,7.10
2018-08-24T12:42:46.931Z,6.80
2018-08-24T12:45:16.107Z,7.00
2018-08-24T12:47:45.596Z,7.07
2018-08-24T12:50:14.645Z,7.53
2018-08-24T12:52:44.224Z,7.57
2018-08-24T12:55:12.777Z,8.00
2018-08-24T12:57:41.495Z,8.17
2018-08-24T13:00:10.180Z,7.87
2018-08-24T13:02:38.838Z,8.30
2018-08-24T13:05:08.594Z,8.30
2018-08-24T13:07:37.824Z,8.13
2018-08-24T13:10:06.428Z,8.43
2018-08-24T13:12:35.741Z,7.83
2018-08-24T13:15:04.864Z,7.67
2018-08-24T13:17:33.506Z,7.20
2018-08-24T13:20:02.121Z,7.43
2018-08-24T13:22:30.630Z,7.20
2018-08-24T13:24:59.931Z,6.13
2018-08-24T13:27:28.805Z,6.60
2018-08-24T13:29:57.383Z,6.17
2018-08-24T13:32:26.016Z,6.90
2018-08-24T13:34:54.593Z,7.50
2018-08-24T13:37:23.175Z,5.97
2018-08-24T13:39:52.464Z,7.00
2018-08-24T13:42:21.201Z,6.23
2018-08-24T13:44:50.019Z,6.33
2018-08-24T13:47:18.664Z,6.33
2018-08-24T13:49:47.276Z,6.10
2018-08-24T13:52:16.152Z,6.13
2018-08-24T13:54:45.077Z,5.80
2018-08-24T13:57:13.864Z,5.90
2018-08-24T13:59:43.181Z,5.27
2018-08-24T14:02:12.626Z,5.43
2018-08-24T14:04:41.244Z,5.60
2018-08-24T14:07:09.984Z,5.30
2018-08-24T14:09:38.799Z,5.87
2018-08-24T14:12:08.126Z,5.53
2018-08-24T14:14:37.538Z,6.07
2018-08-24T14:17:06.256Z,5.33
2018-08-24T14:19:35.644Z,5.47
2018-08-24T14:22:04.290Z,5.20
2018-08-24T14:24:33.438Z,5.33
2018-08-24T14:27:01.968Z,5.47
2018-08-24T14:29:30.494Z,5.27
2018-08-24T14:31:59.125Z,5.40
2018-08-24T14:34:29.615Z,4.90
2018-08-24T14:36:58.224Z,5.80
2018-08-24T14:39:26.908Z,5.73
2018-08-24T14:41:55.477Z,5.63
2018-08-24T14:44:24.194Z,5.40
2018-08-24T14:46:52.899Z,5.70
2018-08-24T14:49:21.686Z,5.30
2018-08-24T14:51:51.044Z,5.80
2018-08-24T14:54:20.223Z,5.90
2018-08-24T14:56:48.872Z,5.73
2018-08-24T14:59:17.624Z,5.40
2018-08-24T15:01:46.183Z,6.07
2018-08-24T15:04:15.131Z,5.70
2018-08-24T15:06:44.354Z,5.47
2018-08-24T15:09:13.684Z,6.57
2018-08-24T15:11:42.581Z,6.07
2018-08-24T15:14:11.290Z,5.90
2018-08-24T15:16:40.077Z,5.80
2018-08-24T15:19:09.295Z,6.27
2018-08-24T15:21:38.128Z,5.97
2018-08-24T15:24:07.012Z,5.70
2018-08-24T15:26:35.573Z,5.93
2018-08-24T15:29:04.308Z,5.63
2018-08-24T15:31:32.956Z,5.67
2018-08-24T15:34:01.499Z,5.90
2018-08-24T15:36:30.191Z,5.73
2018-08-24T15:38:58.969Z,5.47
2018-08-24T15:41:27.595Z,5.37
2018-08-24T15:43:56.214Z,5.50
2018-08-24T15:46:25.037Z,5.33
2018-08-24T15:48:54.207Z,5.83
2018-08-24T15:51:22.812Z,5.33
2018-08-24T15:53:51.459Z,5.70
2018-08-24T15:56:19.983Z,7.30
2018-08-24T15:58:48.687Z,5.17
2018-08-24T16:01:17.179Z,4.93
2018-08-24T16:03:45.980Z,4.70
2018-08-24T16:06:14.584Z,4.60
2018-08-24T16:08:43.152Z,5.00
2018-08-24T16:11:12.066Z,4.80
2018-08-24T16:13:40.711Z,4.60
2018-08-24T16:16:09.707Z,4.87
2018-08-24T16:18:39.321Z,5.10
2018-08-24T16:21:07.899Z,4.47
2018-08-24T16:23:36.609Z,5.43
2018-08-24T16:26:05.529Z,5.90
2018-08-24T16:28:34.072Z,4.53
2018-08-24T16:31:02.589Z,4.90
2018-08-24T16:33:31.292Z,4.60
2018-08-24T16:35:59.889Z,4.53
2018-08-24T16:38:28.622Z,4.20
2018-08-24T16:40:57.267Z,4.30
2018-08-24T16:43:25.740Z,4.43
2018-08-24T16:45:54.374Z,5.00
2018-08-24T16:48:22.908Z,5.20
2018-08-24T16:50:51.471Z,4.73
2018-08-24T16:53:20.759Z,4.57
2018-08-24T16:55:49.744Z,4.50
2018-08-24T16:58:18.409Z,4.60
2018-08-24T17:00:47.249Z,3.93
2018-08-24T17:03:16.251Z,4.57
2018-08-24T17:05:45.609Z,4.93
2018-08-24T17:08:14.121Z,4.70
2018-08-24T17:10:42.730Z,4.50
2018-08-24T17:13:11.315Z,4.70
2018-08-24T17:15:39.993Z,4.93
2018-08-24T17:18:08.647Z,4.93
2018-08-24T17:20:37.606Z,4.87
2018-08-24T17:23:06.398Z,4.60
2018-08-24T17:25:35.157Z,5.40
2018-08-24T17:28:03.705Z,5.07
2018-08-24T17:30:32.383Z,5.30
2018-08-24T17:33:02.207Z,5.30
2018-08-24T17:35:31.251Z,5.23
2018-08-24T17:38:00.411Z,5.50
2018-08-24T17:40:29.182Z,4.97
2018-08-24T17:42:58.123Z,5.27
2018-08-24T17:45:27.343Z,5.23
2018-08-24T17:47:55.952Z,5.10
2018-08-24T17:50:24.671Z,5.40
2018-08-24T17:52:53.381Z,5.30
2018-08-24T17:55:22.206Z,5.10
2018-08-24T17:57:51.127Z,5.27
2018-08-24T18:00:19.773Z,5.23
2018-08-24T18:02:48.560Z,5.30
2018-08-24T18:05:17.344Z,5.30
2018-08-24T18:07:45.946Z,4.93
2018-08-24T18:10:14.675Z,5.17
2018-08-24T18:12:43.917Z,5.13
2018-08-24T18:15:13.237Z,5.07
2018-08-24T18:17:41.644Z,5.23
2018-08-24T18:20:10.605Z,5.70
2018-08-24T18:22:39.348Z,5.67
2018-08-24T18:25:08.322Z,5.80
2018-08-24T18:27:37.174Z,5.63
2018-08-24T18:30:06.272Z,5.73
2018-08-24T18:32:35.700Z,5.67
2018-08-24T18:35:04.799Z,5.93
2018-08-24T18:37:34.168Z,5.87
2018-08-24T18:40:03.097Z,6.57
2018-08-24T18:42:31.876Z,5.93
2018-08-24T18:45:00.474Z,5.50
2018-08-24T18:47:29.160Z,5.90
2018-08-24T18:49:58.603Z,5.70
2018-08-24T18:52:27.253Z,5.63
2018-08-24T18:54:55.933Z,5.73
2018-08-24T18:57:24.582Z,5.80
2018-08-24T18:59:54.149Z,6.00
2018-08-24T19:02:23.002Z,5.47
2018-08-24T19:04:52.946Z,6.03
2018-08-24T19:07:21.770Z,6.07
2018-08-24T19:09:51.106Z,5.33
2018-08-24T19:12:26.812Z,5.63
2018-08-24T19:14:57.240Z,5.80
2018-08-24T19:17:31.439Z,5.73
2018-08-24T19:21:05.696Z,5.57
2018-08-24T19:23:35.149Z,6.10
2018-08-24T19:26:04.054Z,5.90
2018-08-24T19:28:37.926Z,5.87
2018-08-24T19:31:06.772Z,5.43
2018-08-24T19:33:35.659Z,6.23
2018-08-24T19:36:04.296Z,5.57
2018-08-24T19:38:33.176Z,5.87
2018-08-24T19:41:07.171Z,5.67
2018-08-24T19:43:35.927Z,5.80
2018-08-24T19:46:04.729Z,5.53
2018-08-24T19:48:38.656Z,5.80
2018-08-24T19:51:08.629Z,6.00
2018-08-24T19:53:37.244Z,5.73
2018-08-24T19:56:05.859Z,5.97
2018-08-24T19:58:40.160Z,5.97
2018-08-24T20:01:08.844Z,5.77
2018-08-24T20:03:38.133Z,6.13
2018-08-24T20:06:13.409Z,5.50
2018-08-24T20:08:47.525Z,5.43
2018-08-24T20:11:16.592Z,5.90
2018-08-24T20:13:45.225Z,5.80
2018-08-24T20:16:19.082Z,5.53
2018-08-24T20:18:47.697Z,6.03
2018-08-24T20:21:16.266Z,6.33
2018-08-24T20:23:45.749Z,6.20
2018-08-24T20:26:14.886Z,5.83
2018-08-24T20:28:43.568Z,6.30
2018-08-24T20:31:12.366Z,5.90
2018-08-24T20:33:41.016Z,6.37
2018-08-24T20:36:10.296Z,6.00
2018-08-24T20:38:39.181Z,6.80
2018-08-24T20:41:08.529Z,5.23
2018-08-24T20:43:37.484Z,6.27
2018-08-24T20:46:06.948Z,5.73
2018-08-24T20:48:35.670Z,6.17
2018-08-24T20:51:04.485Z,5.93
2018-08-24T20:53:33.553Z,5.67
2018-08-24T20:56:03.200Z,6.13
2018-08-24T20:58:31.841Z,5.63
2018-08-24T21:01:00.541Z,5.87
2018-08-24T21:03:29.564Z,6.30
2018-08-24T21:05:58.960Z,6.10
2018-08-24T21:08:27.473Z,7.07
2018-08-24T21:10:56.120Z,6.07
2018-08-24T21:13:24.684Z,8.07
2018-08-24T21:15:53.661Z,7.20
2018-08-24T21:18:22.464Z,6.80
2018-08-24T21:20:51.549Z,5.90
2018-08-24T21:23:20.252Z,6.03
2018-08-24T21:25:48.941Z,6.00
2018-08-24T21:28:17.488Z,6.63
2018-08-24T21:30:46.027Z,6.33
2018-08-24T21:33:14.537Z,6.50
2018-08-24T21:35:43.064Z,6.30
2018-08-24T21:38:11.583Z,6.40
2018-08-24T21:40:40.155Z,6.70
2018-08-24T21:43:08.749Z,6.60
2018-08-24T21:45:38.027Z,6.80
2018-08-24T21:48:06.770Z,5.77
2018-08-24T21:50:35.303Z,5.77
2018-08-24T21:53:04.020Z,6.43
2018-08-24T21:55:33.607Z,6.30
2018-08-24T21:58:02.154Z,6.40
2018-08-24T22:00:30.885Z,5.67
2018-08-24T22:02:59.530Z,6.30
2018-08-24T22:05:28.243Z,6.23
2018-08-24T22:07:57.542Z,5.97
2018-08-24T22:10:26.115Z,6.17
2018-08-24T22:12:54.703Z,7.17
2018-08-24T22:15:23.283Z,6.30
2018-08-24T22:17:52.608Z,6.37
2018-08-24T22:20:21.136Z,5.77
2018-08-24T22:22:50.207Z,6.50
2018-08-24T22:25:18.781Z,6.03
2018-08-24T22:27:48.237Z,6.20
2018-08-24T22:30:16.852Z,5.70
2018-08-24T22:32:45.965Z,5.53
2018-08-24T22:35:14.634Z,5.43
2018-08-24T22:37:43.937Z,6.03
2018-08-24T22:40:12.460Z,4.60
2018-08-24T22:42:42.973Z,5.07
2018-08-24T22:45:12.884Z,5.13
2018-08-24T22:47:42.315Z,5.43
2018-08-24T22:50:11.351Z,4.97
2018-08-24T22:52:40.723Z,4.30
2018-08-24T22:55:09.860Z,4.50
2018-08-24T22:57:38.548Z,4.80
2018-08-24T23:00:07.925Z,4.60
2018-08-24T23:02:36.537Z,4.57
2018-08-24T23:05:05.146Z,4.70
2018-08-24T23:07:33.841Z,4.57
2018-08-24T23:10:02.394Z,4.00
2018-08-24T23:12:31.127Z,4.40
2018-08-24T23:14:59.772Z,4.90
2018-08-24T23:17:28.272Z,4.00
2018-08-24T23:19:57.410Z,4.50
2018-08-24T23:22:26.707Z,4.43
2018-08-24T23:24:55.573Z,4.20
2018-08-24T23:27:24.938Z,4.70
2018-08-24T23:29:53.640Z,4.43
2018-08-24T23:32:22.213Z,4.30
2018-08-24T23:34:50.827Z,4.33
2018-08-24T23:37:19.954Z,4.50
2018-08-24T23:39:48.885Z,4.03
2018-08-24T23:42:17.628Z,4.13
2018-08-24T23:44:46.433Z,4.57
2018-08-24T23:47:15.049Z,4.00
2018-08-24T23:49:43.591Z,4.70
2018-08-24T23:52:12.358Z,4.20
2018-08-24T23:54:41.024Z,4.50
2018-08-24T23:57:09.829Z,5.07
2018-08-24T23:59:38.463Z,4.30
